sensor_id;sensor_type;location;lat;lon;timestamp;P1;durP1;ratioP1;P2;durP2;ratioP2
58972;SDS011;44750;52.040;7.472;2024-02-26T05:01:15;1.50;;;1.40;;
58972;SDS011;44750;52.040;7.472;2024-02-26T05:06:16;2.85;;;1.63;;
58972;SDS011;44750;52.040;7.472;2024-02-26T05:11:16;1.88;;;1.73;;
58972;SDS011;44750;52.040;7.472;2024-02-26T05:16:16;2.83;;;2.00;;
58972;SDS011;44750;52.040;7.472;2024-02-26T05:21:16;2.90;;;1.88;;
58972;SDS011;44750;52.040;7.472;2024-02-26T05:26:23;2.95;;;1.70;;
58972;SDS011;44750;52.040;7.472;2024-02-26T05:31:26;1.50;;;1.40;;
58972;SDS011;44750;52.040;7.472;2024-02-26T05:36:27;1.70;;;1.60;;
58972;SDS011;44750;52.040;7.472;2024-02-26T05:41:28;1.80;;;1.70;;
58972;SDS011;44750;52.040;7.472;2024-02-26T05:46:28;1.42;;;1.33;;
58972;SDS011;44750;52.040;7.472;2024-02-26T05:51:28;1.73;;;1.58;;
58972;SDS011;44750;52.040;7.472;2024-02-26T05:56:28;3.03;;;1.70;;
58972;SDS011;44750;52.040;7.472;2024-02-26T06:01:29;3.05;;;1.83;;
58972;SDS011;44750;52.040;7.472;2024-02-26T06:06:31;2.20;;;1.70;;
58972;SDS011;44750;52.040;7.472;2024-02-26T06:11:31;5.75;;;1.40;;
58972;SDS011;44750;52.040;7.472;2024-02-26T06:16:31;6.13;;;1.90;;
58972;SDS011;44750;52.040;7.472;2024-02-26T06:21:31;1.88;;;1.65;;
58972;SDS011;44750;52.040;7.472;2024-02-26T06:26:32;1.77;;;1.50;;
58972;SDS011;44750;52.040;7.472;2024-02-26T06:31:32;2.15;;;1.50;;
58972;SDS011;44750;52.040;7.472;2024-02-26T06:36:32;1.65;;;1.55;;
58972;SDS011;44750;52.040;7.472;2024-02-26T06:41:32;1.73;;;1.55;;
58972;SDS011;44750;52.040;7.472;2024-02-26T06:46:33;1.85;;;1.52;;
58972;SDS011;44750;52.040;7.472;2024-02-26T06:51:33;1.77;;;1.67;;
58972;SDS011;44750;52.040;7.472;2024-02-26T06:56:33;2.72;;;1.73;;
58972;SDS011;44750;52.040;7.472;2024-02-26T07:01:33;2.17;;;1.60;;
58972;SDS011;44750;52.040;7.472;2024-02-26T07:06:33;1.80;;;1.30;;
58972;SDS011;44750;52.040;7.472;2024-02-26T07:11:34;2.17;;;1.65;;
58972;SDS011;44750;52.040;7.472;2024-02-26T07:16:34;2.20;;;1.83;;
58972;SDS011;44750;52.040;7.472;2024-02-26T07:21:34;2.08;;;1.80;;
58972;SDS011;44750;52.040;7.472;2024-02-26T15:17:38;8.60;;;6.97;;
58972;SDS011;44750;52.040;7.472;2024-02-26T15:22:38;11.17;;;8.70;;
58972;SDS011;44750;52.040;7.472;2024-02-26T15:27:38;13.77;;;9.43;;
58972;SDS011;44750;52.040;7.472;2024-02-26T15:32:38;13.55;;;8.85;;
58972;SDS011;44750;52.040;7.472;2024-02-26T15:37:39;11.13;;;8.95;;
58972;SDS011;44750;52.040;7.472;2024-02-26T15:42:39;9.25;;;7.35;;
58972;SDS011;44750;52.040;7.472;2024-02-26T15:47:40;11.65;;;8.57;;
58972;SDS011;44750;52.040;7.472;2024-02-26T15:52:41;10.73;;;8.52;;
58972;SDS011;44750;52.040;7.472;2024-02-26T15:57:41;7.82;;;6.80;;
58972;SDS011;44750;52.040;7.472;2024-02-26T16:02:41;8.50;;;7.00;;
58972;SDS011;44750;52.040;7.472;2024-02-26T16:07:43;8.95;;;6.00;;
58972;SDS011;44750;52.040;7.472;2024-02-26T16:12:54;10.00;;;7.68;;
58972;SDS011;44750;52.040;7.472;2024-02-26T16:17:58;9.65;;;7.20;;
58972;SDS011;44750;52.040;7.472;2024-02-26T16:22:59;10.95;;;6.78;;
58972;SDS011;44750;52.040;7.472;2024-02-26T16:28:00;10.10;;;6.28;;
58972;SDS011;44750;52.040;7.472;2024-02-26T16:33:00;10.52;;;7.40;;
58972;SDS011;44750;52.040;7.472;2024-02-26T16:38:01;9.23;;;6.97;;
58972;SDS011;44750;52.040;7.472;2024-02-26T16:43:02;8.97;;;7.00;;
58972;SDS011;44750;52.040;7.472;2024-02-26T16:48:02;7.25;;;6.38;;
58972;SDS011;44750;52.040;7.472;2024-02-26T16:53:04;9.05;;;7.65;;
58972;SDS011;44750;52.040;7.472;2024-02-26T16:58:04;9.40;;;7.70;;
58972;SDS011;44750;52.040;7.472;2024-02-26T17:03:05;13.07;;;9.25;;
58972;SDS011;44750;52.040;7.472;2024-02-26T17:08:05;7.25;;;5.57;;
58972;SDS011;44750;52.040;7.472;2024-02-26T17:13:05;14.38;;;8.77;;
58972;SDS011;44750;52.040;7.472;2024-02-26T17:18:05;9.15;;;7.65;;
58972;SDS011;44750;52.040;7.472;2024-02-26T17:23:06;9.75;;;6.95;;
58972;SDS011;44750;52.040;7.472;2024-02-26T17:28:06;11.18;;;6.10;;
58972;SDS011;44750;52.040;7.472;2024-02-26T17:33:06;10.02;;;8.07;;
58972;SDS011;44750;52.040;7.472;2024-02-26T17:38:07;10.35;;;7.15;;
58972;SDS011;44750;52.040;7.472;2024-02-26T17:43:07;9.13;;;6.80;;
58972;SDS011;44750;52.040;7.472;2024-02-26T17:48:07;8.65;;;7.70;;
58972;SDS011;44750;52.040;7.472;2024-02-26T17:53:07;8.20;;;6.47;;
58972;SDS011;44750;52.040;7.472;2024-02-26T17:58:08;9.43;;;6.57;;
58972;SDS011;44750;52.040;7.472;2024-02-26T18:03:08;11.90;;;8.67;;
58972;SDS011;44750;52.040;7.472;2024-02-26T18:08:08;9.68;;;7.45;;
58972;SDS011;44750;52.040;7.472;2024-02-26T18:13:09;10.90;;;7.93;;
58972;SDS011;44750;52.040;7.472;2024-02-26T18:18:09;16.42;;;10.18;;
58972;SDS011;44750;52.040;7.472;2024-02-26T18:23:10;11.40;;;8.68;;
58972;SDS011;44750;52.040;7.472;2024-02-26T18:28:10;12.63;;;8.93;;
58972;SDS011;44750;52.040;7.472;2024-02-26T18:33:10;8.80;;;6.82;;
58972;SDS011;44750;52.040;7.472;2024-02-26T18:38:11;10.98;;;9.02;;
58972;SDS011;44750;52.040;7.472;2024-02-26T18:43:11;13.00;;;9.75;;
58972;SDS011;44750;52.040;7.472;2024-02-26T18:48:11;11.85;;;9.13;;
58972;SDS011;44750;52.040;7.472;2024-02-26T18:53:11;11.60;;;8.75;;
58972;SDS011;44750;52.040;7.472;2024-02-26T18:58:12;9.70;;;8.57;;
58972;SDS011;44750;52.040;7.472;2024-02-26T19:03:12;18.20;;;10.73;;
58972;SDS011;44750;52.040;7.472;2024-02-26T19:08:12;12.10;;;10.30;;
58972;SDS011;44750;52.040;7.472;2024-02-26T19:13:14;12.23;;;9.75;;
58972;SDS011;44750;52.040;7.472;2024-02-26T19:23:17;14.40;;;8.90;;
58972;SDS011;44750;52.040;7.472;2024-02-26T19:28:18;12.65;;;9.43;;
58972;SDS011;44750;52.040;7.472;2024-02-26T19:33:18;12.50;;;7.47;;
58972;SDS011;44750;52.040;7.472;2024-02-26T19:38:18;13.52;;;10.93;;
58972;SDS011;44750;52.040;7.472;2024-02-26T19:43:18;10.07;;;9.07;;
58972;SDS011;44750;52.040;7.472;2024-02-26T19:48:19;19.02;;;12.10;;
58972;SDS011;44750;52.040;7.472;2024-02-26T19:53:19;13.85;;;11.57;;
58972;SDS011;44750;52.040;7.472;2024-02-26T19:58:19;15.25;;;11.90;;
58972;SDS011;44750;52.040;7.472;2024-02-26T20:03:19;22.83;;;12.95;;
58972;SDS011;44750;52.040;7.472;2024-02-26T20:08:19;23.05;;;12.38;;
58972;SDS011;44750;52.040;7.472;2024-02-26T20:13:20;14.07;;;12.23;;
58972;SDS011;44750;52.040;7.472;2024-02-26T20:18:20;18.13;;;13.53;;
58972;SDS011;44750;52.040;7.472;2024-02-26T20:23:20;15.70;;;14.00;;
58972;SDS011;44750;52.040;7.472;2024-02-26T20:28:20;17.83;;;13.60;;
58972;SDS011;44750;52.040;7.472;2024-02-26T20:33:21;17.05;;;14.48;;
58972;SDS011;44750;52.040;7.472;2024-02-26T20:38:21;22.08;;;12.13;;
58972;SDS011;44750;52.040;7.472;2024-02-26T20:43:21;16.48;;;12.75;;
58972;SDS011;44750;52.040;7.472;2024-02-26T20:48:21;16.67;;;14.38;;
58972;SDS011;44750;52.040;7.472;2024-02-26T20:53:21;17.38;;;13.73;;
58972;SDS011;44750;52.040;7.472;2024-02-26T20:58:22;16.35;;;14.18;;
58972;SDS011;44750;52.040;7.472;2024-02-26T21:03:22;15.60;;;11.52;;
58972;SDS011;44750;52.040;7.472;2024-02-26T21:08:22;14.88;;;12.50;;
58972;SDS011;44750;52.040;7.472;2024-02-26T21:13:22;15.23;;;12.05;;
58972;SDS011;44750;52.040;7.472;2024-02-26T21:18:23;15.52;;;11.88;;
58972;SDS011;44750;52.040;7.472;2024-02-26T21:23:24;17.95;;;12.23;;
58972;SDS011;44750;52.040;7.472;2024-02-26T21:28:24;20.45;;;12.63;;
58972;SDS011;44750;52.040;7.472;2024-02-26T21:33:25;18.52;;;14.35;;
58972;SDS011;44750;52.040;7.472;2024-02-26T21:38:26;21.25;;;16.73;;
58972;SDS011;44750;52.040;7.472;2024-02-26T21:43:26;19.38;;;16.15;;
58972;SDS011;44750;52.040;7.472;2024-02-26T21:48:26;17.13;;;14.90;;
58972;SDS011;44750;52.040;7.472;2024-02-26T21:53:27;21.27;;;16.33;;
